Time;durP1;ratioP1;P1;durP2;ratioP2;P2;SDS_P1;SDS_P2;PMS_P1;PMS_P2;Temp;Humidity;BMP_temperature;BMP_pressure;BME280_temperature;BME280_humidity;BME280_pressure;Samples;Min_cycle;Max_cycle;Signal;HPM_P1;HPM_P2
2022/05/21 00:01:51;;;;;;;19.30;16.90;;;;;;;17.38;73.77;99659.74;108933;1267;21966;-75
2022/05/21 00:04:21;;;;;;;18.40;16.50;;;;;;;17.36;73.73;99651.85;108912;1267;21972;-75
2022/05/21 00:06:57;;;;;;;19.10;17.40;;;;;;;17.35;73.95;99647.71;109095;1267;22436;-74
2022/05/21 00:09:29;;;;;;;18.70;16.70;;;;;;;17.35;74.05;99639.70;109140;1267;23637;-76
2022/05/21 00:12:04;;;;;;;20.80;16.50;;;;;;;17.35;74.17;99643.41;108947;1270;21978;-75
2022/05/21 00:14:35;;;;;;;19.30;17.50;;;;;;;17.34;74.34;99652.85;109191;1267;23622;-76
2022/05/21 00:17:05;;;;;;;18.20;16.30;;;;;;;17.31;74.28;99669.00;109165;1267;22689;-74
2022/05/21 00:19:34;;;;;;;18.80;16.80;;;;;;;17.31;74.75;99660.42;109206;1267;23000;-75
2022/05/21 00:22:03;;;;;;;18.20;16.50;;;;;;;17.33;74.69;99654.27;109207;1267;23745;-74
2022/05/21 00:24:35;;;;;;;20.90;18.90;;;;;;;17.32;74.74;99659.79;109154;1267;22999;-75
2022/05/21 00:27:05;;;;;;;20.10;17.00;;;;;;;17.30;74.86;99660.55;109179;1267;21977;-75
2022/05/21 00:29:37;;;;;;;19.50;17.40;;;;;;;17.30;75.12;99656.79;109165;1267;21978;-75
2022/05/21 00:32:09;;;;;;;20.50;17.00;;;;;;;17.32;75.31;99745.22;108995;1268;21971;-76
2022/05/21 00:34:38;;;;;;;19.00;15.20;;;;;;;17.29;75.13;99800.14;109160;1266;21978;-76
2022/05/21 00:37:09;;;;;;;13.70;11.40;;;;;;;17.22;75.37;99757.88;109207;1267;22781;-76
2022/05/21 00:39:41;;;;;;;11.80;10.50;;;;;;;17.21;75.68;99742.66;109141;1266;23725;-77
2022/05/21 00:42:10;;;;;;;10.80;9.70;;;;;;;17.20;75.91;99728.02;109118;1267;23075;-78
2022/05/21 00:44:39;;;;;;;9.90;7.50;;;;;;;17.22;76.18;99705.81;109106;1267;22450;-77
2022/05/21 00:47:08;;;;;;;7.30;6.50;;;;;;;17.21;76.14;99695.44;108876;1267;22767;-76
2022/05/21 00:49:39;;;;;;;6.90;5.50;;;;;;;17.16;76.14;99680.59;109161;1267;22004;-75
2022/05/21 00:52:19;;;;;;;6.50;5.90;;;;;;;17.11;76.13;99671.84;109157;1267;21980;-75
2022/05/21 00:55:08;;;;;;;9.50;6.10;;;;;;;17.03;76.36;99671.48;109156;1267;21985;-76
2022/05/21 00:59:47;;;;;;;6.40;5.50;;;;;;;16.94;76.60;99680.77;109104;1267;21974;-80
2022/05/21 01:00:45;;;;;;;9.40;5.30;;;;;;;16.89;77.00;99686.00;109021;1267;21976;-78
2022/05/21 01:03:15;;;;;;;6.60;5.70;;;;;;;16.91;77.34;99686.00;109191;1267;22060;-79
2022/05/21 01:05:50;;;;;;;6.80;5.60;;;;;;;16.96;77.73;99691.89;109384;1267;21984;-79
2022/05/21 01:08:19;;;;;;;6.20;5.60;;;;;;;17.01;77.96;99671.86;109167;1267;23079;-78
2022/05/21 01:10:55;;;;;;;7.80;7.10;;;;;;;17.06;77.93;99684.73;109179;1267;21978;-78
2022/05/21 01:13:31;;;;;;;9.00;7.20;;;;;;;17.07;78.00;99680.94;108932;1267;21984;-79
2022/05/21 01:16:05;;;;;;;9.60;7.70;;;;;;;17.08;78.09;99666.55;109170;1267;21978;-79
2022/05/21 01:18:33;;;;;;;;;;;;;;;17.06;77.87;99644.71;109134;1267;23077;-79
2022/05/21 01:21:04;;;;;;;8.50;5.90;;;;;;;16.92;77.75;99651.46;109184;1267;21972;-78
2022/05/21 01:23:33;;;;;;;8.70;6.90;;;;;;;16.87;78.15;99662.52;108967;1267;22283;-81
2022/05/21 01:26:06;;;;;;;6.50;5.80;;;;;;;16.87;78.28;99654.53;108866;1270;22765;-80
2022/05/21 01:28:38;;;;;;;7.80;6.30;;;;;;;16.90;78.66;99666.55;108890;1267;22027;-79
2022/05/21 01:31:07;;;;;;;7.20;6.40;;;;;;;16.95;78.97;99678.64;109107;1267;23050;-79
2022/05/21 01:33:42;;;;;;;9.30;6.50;;;;;;;17.00;79.00;99688.54;109157;1266;21975;-79
2022/05/21 01:36:14;;;;;;;6.90;5.70;;;;;;;17.05;79.01;99688.60;109133;1268;23103;-79
2022/05/21 01:38:45;;;;;;;8.00;5.90;;;;;;;17.08;78.97;99688.85;109172;1267;23590;-79
2022/05/21 01:41:14;;;;;;;9.30;6.10;;;;;;;17.06;78.82;99690.02;109170;1267;23028;-79
2022/05/21 01:46:31;;;;;;;8.50;6.80;;;;;;;17.05;79.06;99700.79;109183;1267;23704;-79
2022/05/21 01:49:00;;;;;;;8.90;7.40;;;;;;;17.04;79.22;99703.97;109163;1267;21984;-79
2022/05/21 01:51:30;;;;;;;9.00;8.10;;;;;;;17.08;79.55;99703.10;108991;1267;23051;-78
2022/05/21 01:53:59;;;;;;;9.30;8.50;;;;;;;17.11;79.53;99707.82;109171;1267;21979;-78
2022/05/21 01:56:28;;;;;;;9.00;8.00;;;;;;;17.13;79.56;99712.22;109165;1267;22446;-78
2022/05/21 01:58:57;;;;;;;16.20;10.00;;;;;;;17.18;79.76;99696.85;109143;1267;21988;-78
2022/05/21 02:01:26;;;;;;;8.40;7.60;;;;;;;17.21;79.70;99687.67;109156;1267;23069;-78
2022/05/21 02:03:55;;;;;;;9.60;8.80;;;;;;;17.24;79.73;99690.80;108933;1269;23617;-79
2022/05/21 02:06:24;;;;;;;9.30;8.30;;;;;;;17.28;79.76;99691.92;108843;1270;23686;-78
2022/05/21 02:08:53;;;;;;;8.00;7.40;;;;;;;17.31;79.75;99686.46;108931;1269;22560;-79
2022/05/21 02:11:22;;;;;;;7.30;6.60;;;;;;;17.33;79.75;99692.88;108784;1270;22757;-79
2022/05/21 02:13:51;;;;;;;7.90;7.10;;;;;;;17.36;79.83;99698.30;108916;1270;23818;-79
2022/05/21 02:16:20;;;;;;;7.40;6.70;;;;;;;17.38;79.72;99700.11;108872;1270;22089;-79
2022/05/21 02:19:01;;;;;;;7.60;6.90;;;;;;;17.40;79.72;99699.51;108831;1270;23628;-78
2022/05/21 02:21:31;;;;;;;7.00;6.40;;;;;;;17.42;79.69;99701.05;108751;1271;23618;-78
2022/05/21 02:24:00;;;;;;;7.90;7.20;;;;;;;17.43;79.62;99703.70;108882;1270;22788;-79
2022/05/21 02:26:35;;;;;;;7.60;6.90;;;;;;;17.44;79.66;99703.24;108784;1269;23420;-79
2022/05/21 02:29:06;;;;;;;7.70;6.10;;;;;;;17.46;79.78;99704.73;109052;1267;21996;-79
2022/05/21 02:31:35;;;;;;;6.70;6.10;;;;;;;17.46;79.69;99706.33;109210;1267;23046;-78
2022/05/21 02:34:05;;;;;;;7.40;6.60;;;;;;;17.47;79.77;99713.88;108931;1267;23052;-78
2022/05/21 02:39:29;;;;;;;9.60;8.80;;;;;;;17.35;79.56;99717.95;109149;1267;23867;-79
2022/05/21 02:42:00;;;;;;;15.00;12.10;;;;;;;17.27;79.82;99722.33;109168;1267;22011;-79
2022/05/21 02:44:30;;;;;;;11.30;10.40;;;;;;;17.25;80.25;99724.91;109157;1266;21991;-78
2022/05/21 02:46:59;;;;;;;14.20;13.00;;;;;;;17.25;80.54;99728.60;109182;1267;23144;-79
2022/05/21 02:49:30;;;;;;;15.10;13.70;;;;;;;17.28;80.89;99727.00;108971;1267;23050;-79
2022/05/21 02:51:59;;;;;;;16.00;14.40;;;;;;;17.28;81.09;99728.15;109197;1267;21975;-78
2022/05/21 02:54:28;;;;;;;14.20;12.70;;;;;;;17.31;81.29;99724.95;109180;1267;21985;-79
2022/05/21 02:56:57;;;;;;;12.20;11.00;;;;;;;17.36;81.49;99724.02;109192;1267;23593;-78
2022/05/21 02:59:28;;;;;;;12.60;11.50;;;;;;;17.40;81.65;99723.16;109154;1266;22091;-79
2022/05/21 03:01:58;;;;;;;10.30;9.30;;;;;;;17.44;81.81;99731.42;109266;1267;21994;-79
2022/05/21 03:04:28;;;;;;;9.90;8.90;;;;;;;17.47;82.02;99738.44;109101;1267;23737;-78
2022/05/21 03:06:57;;;;;;;7.90;7.20;;;;;;;17.50;82.20;99739.05;108946;1267;21991;-79
2022/05/21 03:12:14;;;;;;;6.50;5.60;;;;;;;17.53;82.59;99736.83;109147;1267;22450;-79
2022/05/21 03:14:42;;;;;;;5.50;5.00;;;;;;;17.56;82.77;99739.21;108871;1270;21978;-79
2022/05/21 03:17:12;;;;;;;5.90;5.30;;;;;;;17.58;82.89;99738.94;108827;1271;21991;-79
2022/05/21 03:19:41;;;;;;;5.80;5.30;;;;;;;17.59;83.05;99741.05;108886;1270;21985;-78
2022/05/21 03:22:10;;;;;;;5.80;5.00;;;;;;;17.61;83.21;99743.83;108786;1271;22003;-79
2022/05/21 03:24:39;;;;;;;6.00;5.20;;;;;;;17.62;83.29;99740.23;108760;1270;23685;-79
2022/05/21 03:27:08;;;;;;;7.30;6.00;;;;;;;17.63;83.39;99745.06;108863;1270;23056;-79
2022/05/21 03:29:37;;;;;;;7.80;5.50;;;;;;;17.65;83.66;99744.25;108819;1270;21987;-79
2022/05/21 03:32:07;;;;;;;9.80;6.70;;;;;;;17.66;83.74;99741.45;108780;1268;23082;-79
2022/05/21 03:34:36;;;;;;;7.20;6.50;;;;;;;17.68;83.87;99746.39;109107;1267;22860;-79
2022/05/21 03:37:05;;;;;;;6.60;6.00;;;;;;;17.69;83.90;99749.73;108919;1267;21984;-78
2022/05/21 03:39:34;;;;;;;6.80;6.00;;;;;;;17.71;83.98;99750.65;109096;1267;21998;-78
2022/05/21 03:42:04;;;;;;;7.60;5.40;;;;;;;17.73;84.00;99758.06;109113;1266;21973;-79
2022/05/21 03:44:33;;;;;;;6.10;5.30;;;;;;;17.74;83.92;99766.70;109149;1267;22000;-79
2022/05/21 03:47:03;;;;;;;7.20;5.20;;;;;;;17.74;83.97;99765.70;108908;1267;22080;-79
2022/05/21 03:49:34;;;;;;;9.30;5.40;;;;;;;17.74;83.88;99772.19;108915;1267;23115;-79
2022/05/21 03:52:03;;;;;;;5.00;4.30;;;;;;;17.72;83.73;99776.25;109187;1267;23060;-80
2022/05/21 03:54:33;;;;;;;8.20;5.00;;;;;;;17.70;83.68;99787.12;108935;1267;22307;-78
2022/05/21 03:57:04;;;;;;;5.00;3.90;;;;;;;17.68;83.55;99790.23;109152;1267;21979;-80
2022/05/21 03:59:34;;;;;;;5.50;3.90;;;;;;;17.66;83.33;99792.08;109122;1267;22210;-79
2022/05/21 04:02:05;;;;;;;6.90;3.90;;;;;;;17.63;83.12;99796.92;109014;1267;21990;-79
2022/05/21 04:04:35;;;;;;;10.10;4.90;;;;;;;17.59;82.77;99807.98;108920;1267;22062;-79
2022/05/21 04:07:10;;;;;;;4.60;3.20;;;;;;;17.50;82.21;99813.04;109155;1267;21972;-79
2022/05/21 04:09:49;;;;;;;7.80;3.10;;;;;;;17.41;81.81;99826.14;108817;1270;21984;-78
2022/05/21 04:12:19;;;;;;;;;;;;;;;17.33;81.57;99840.32;108307;1276;21985;-78
2022/05/21 04:14:52;;;;;;;3.30;2.70;;;;;;;17.21;81.50;99847.70;108345;1276;21993;-78
2022/05/21 04:17:33;;;;;;;2.90;1.70;;;;;;;17.12;81.30;99856.14;108375;1277;23615;-78
2022/05/21 04:20:12;;;;;;;2.40;1.00;;;;;;;17.06;80.91;99856.91;108354;1276;22136;-78
2022/05/21 04:22:43;;;;;;;3.40;1.30;;;;;;;17.00;80.34;99862.19;108381;1276;23705;-78
2022/05/21 04:25:21;;;;;;;2.60;1.10;;;;;;;16.95;79.70;99863.96;108110;1276;21988;-78
2022/05/21 04:28:21;;;;;;;;;;;;;;;;;;;;;
2022/05/21 04:31:25;;;;;;;5.00;1.80;;;;;;;16.98;79.16;99877.55;108701;1273;23584;-78
2022/05/21 04:34:18;;;;;;;3.40;1.90;;;;;;;17.08;78.92;99880.99;108762;1273;21988;-78
2022/05/21 04:37:04;;;;;;;4.40;2.10;;;;;;;17.09;78.32;99883.89;108481;1273;23134;-79
2022/05/21 04:39:44;;;;;;;2.10;1.20;;;;;;;17.02;77.57;99889.13;108626;1273;22008;-78
2022/05/21 04:43:07;;;;;;;5.80;4.20;;;;;;;16.93;76.91;99896.07;108326;1276;23713;-79
2022/05/21 04:46:38;;;;;;;7.60;6.10;;;;;;;16.85;77.15;99894.23;107987;1282;22777;-80
2022/05/21 04:49:35;;;;;;;6.70;4.00;;;;;;;16.88;77.73;99898.02;107993;1282;22023;-79
2022/05/21 04:52:20;;;;;;;;;;;;;;;;;;;;;
2022/05/21 04:56:05;;;;;;;;;;;;;;;;;;;;;
2022/05/21 04:59:30;;;;;;;;;;;;;;;;;;;;;
2022/05/21 05:02:21;;;;;;;8.80;6.20;;;;;;;17.23;76.96;99906.36;108797;1273;22026;-79
2022/05/21 05:04:51;;;;;;;7.00;5.60;;;;;;;17.29;76.73;99909.91;108798;1267;21982;-80
2022/05/21 05:07:22;;;;;;;5.60;2.20;;;;;;;17.39;76.42;99918.88;109092;1267;23594;-80
2022/05/21 05:09:55;;;;;;;4.80;3.20;;;;;;;17.48;76.03;99927.65;108932;1270;21976;-78
2022/05/21 05:12:24;;;;;;;5.30;4.60;;;;;;;17.51;75.57;99931.30;108735;1270;24393;-78
2022/05/21 05:14:53;;;;;;;4.40;2.80;;;;;;;17.50;75.06;99935.79;108371;1277;23050;-79
2022/05/21 05:17:24;;;;;;;6.60;2.00;;;;;;;17.46;74.64;99945.08;108063;1280;22024;-79
2022/05/21 05:19:56;;;;;;;2.70;1.20;;;;;;;17.45;74.95;99943.30;108065;1280;24402;-78
2022/05/21 05:22:27;;;;;;;4.90;1.20;;;;;;;17.52;75.10;99943.67;108194;1280;23636;-78
2022/05/21 05:24:58;;;;;;;3.80;2.60;;;;;;;17.54;74.60;99955.48;108023;1282;24406;-79
2022/05/21 05:27:27;;;;;;;6.70;5.30;;;;;;;17.45;73.70;99956.55;108175;1276;22024;-78
2022/05/21 05:30:00;;;;;;;4.50;4.10;;;;;;;17.37;73.84;99956.27;108345;1277;22610;-79
2022/05/21 05:32:30;;;;;;;6.90;2.80;;;;;;;17.41;74.14;99953.56;108460;1270;22445;-80
2022/05/21 05:35:00;;;;;;;4.40;1.70;;;;;;;17.49;74.16;99958.48;108798;1267;23089;-79
2022/05/21 05:37:41;;;;;;;2.50;1.20;;;;;;;17.62;74.27;99957.32;108953;1270;23128;-80
2022/05/21 05:40:44;;;;;;;5.70;4.30;;;;;;;17.84;74.00;99960.70;109148;1268;22053;-78
2022/05/21 05:44:20;;;;;;;7.60;4.40;;;;;;;18.13;74.24;99960.93;108941;1270;23058;-80
2022/05/21 05:47:05;;;;;;;3.40;2.60;;;;;;;18.34;73.01;99956.57;108918;1270;22993;-80
2022/05/21 05:50:02;;;;;;;8.20;1.70;;;;;;;18.41;72.10;99952.52;108871;1270;21989;-79
2022/05/21 05:52:54;;;;;;;2.90;1.30;;;;;;;18.40;71.64;99960.09;108797;1270;23651;-79
2022/05/21 05:55:41;;;;;;;2.50;1.00;;;;;;;18.35;71.98;99965.85;108844;1270;21975;-79
2022/05/21 06:01:01;;;;;;;2.80;1.20;;;;;;;18.10;72.31;99969.44;108834;1270;21972;-78
2022/05/21 06:03:31;;;;;;;7.00;2.70;;;;;;;18.03;72.36;99977.61;108691;1273;23504;-79
2022/05/21 06:06:01;;;;;;;7.40;4.60;;;;;;;18.03;73.08;99989.37;108569;1274;22780;-79
2022/05/21 06:08:31;;;;;;;4.60;1.40;;;;;;;18.18;73.90;99987.22;108352;1279;22364;-79
2022/05/21 06:11:02;;;;;;;;;;;;;;;18.44;73.78;99990.85;108364;1279;23004;-79
2022/05/21 06:13:36;;;;;;;3.40;1.70;;;;;;;18.47;72.23;99988.09;108383;1280;21999;-79
2022/05/21 06:16:07;;;;;;;5.70;3.10;;;;;;;18.36;71.30;99999.77;107856;1285;23950;-79
2022/05/21 06:18:44;;;;;;;9.00;4.60;;;;;;;18.23;70.98;100006.48;107676;1287;22005;-78
2022/05/21 06:21:13;;;;;;;17.50;15.20;;;;;;;18.07;70.51;100013.77;107945;1279;23013;-79
2022/05/21 06:23:43;;;;;;;6.30;5.70;;;;;;;17.91;70.07;100012.94;108367;1279;21994;-79
2022/05/21 06:26:20;;;;;;;4.30;3.70;;;;;;;17.75;70.12;100016.04;108327;1276;22235;-79
2022/05/21 06:29:01;;;;;;;10.60;8.00;;;;;;;17.59;69.67;100020.05;108481;1276;22010;-78
2022/05/21 06:31:34;;;;;;;5.80;3.20;;;;;;;17.52;69.84;100020.25;108085;1279;23632;-78
2022/05/21 06:34:13;;;;;;;2.40;1.40;;;;;;;17.48;69.28;100020.24;108481;1273;23185;-79
2022/05/21 06:36:51;;;;;;;3.50;2.70;;;;;;;17.43;69.08;100021.36;108355;1276;22456;-78
2022/05/21 06:39:28;;;;;;;5.80;4.90;;;;;;;17.34;68.57;100022.35;108435;1276;23607;-78
2022/05/21 06:42:02;;;;;;;6.00;4.60;;;;;;;17.33;68.81;100021.95;108018;1282;22001;-77
2022/05/21 06:44:34;;;;;;;3.30;1.50;;;;;;;17.66;70.41;100025.23;108099;1280;23098;-78
2022/05/21 06:47:09;;;;;;;3.80;2.90;;;;;;;18.18;69.43;100026.83;107697;1286;23615;-76
2022/05/21 06:49:47;;;;;;;6.00;3.80;;;;;;;18.57;65.94;100032.20;107862;1282;22000;-78
2022/05/21 06:52:39;;;;;;;6.70;6.10;;;;;;;18.90;63.46;100038.30;107992;1282;23108;-79
2022/05/21 06:55:34;;;;;;;5.00;4.40;;;;;;;19.17;60.74;100047.61;107966;1282;24426;-77
2022/05/21 06:58:22;;;;;;;4.60;2.20;;;;;;;19.39;57.98;100054.96;107773;1285;22020;-79
2022/05/21 07:00:56;;;;;;;7.30;1.60;;;;;;;19.54;56.37;100061.45;108129;1281;22417;-79
2022/05/21 07:03:25;;;;;;;3.50;2.50;;;;;;;19.62;55.55;100067.94;108218;1282;22200;-78
2022/05/21 07:08:43;;;;;;;4.20;1.00;;;;;;;19.76;53.13;100064.80;108151;1280;22008;-79
2022/05/21 07:11:15;;;;;;;5.40;0.90;;;;;;;19.56;52.04;100061.92;108221;1279;22400;-79
2022/05/21 07:13:47;;;;;;;1.50;0.60;;;;;;;19.27;52.13;100066.21;108359;1276;23071;-78
2022/05/21 07:16:19;;;;;;;3.30;1.00;;;;;;;19.08;52.49;100064.20;108162;1276;22781;-79
2022/05/21 07:18:48;;;;;;;3.10;0.80;;;;;;;18.97;52.77;100067.84;108365;1276;23844;-78
2022/05/21 07:21:20;;;;;;;2.90;0.90;;;;;;;18.86;52.44;100069.54;108224;1276;230201;-78
2022/05/21 07:24:16;;;;;;;2.00;0.80;;;;;;;18.78;53.03;100071.64;107915;1281;22011;-79
2022/05/21 07:26:52;;;;;;;4.20;0.90;;;;;;;18.89;53.10;100076.45;107678;1282;22012;-78
2022/05/21 07:29:28;;;;;;;2.50;0.70;;;;;;;19.08;52.72;100083.73;108047;1282;21997;-77
2022/05/21 07:31:58;;;;;;;4.10;0.80;;;;;;;19.21;51.92;100087.07;108080;1282;22000;-78
2022/05/21 07:34:31;;;;;;;1.40;0.60;;;;;;;19.22;50.83;100088.49;108042;1276;24174;-77
2022/05/21 07:37:00;;;;;;;3.70;0.80;;;;;;;19.19;50.81;100085.25;108374;1276;22770;-77
2022/05/21 07:39:29;;;;;;;5.70;1.30;;;;;;;19.28;51.37;100091.86;108396;1278;22014;-78
2022/05/21 07:42:11;;;;;;;2.00;0.90;;;;;;;19.48;51.99;100100.44;108332;1273;23826;-77
2022/05/21 07:44:40;;;;;;;3.10;0.80;;;;;;;19.83;51.73;100105.69;108852;1267;21983;-78
2022/05/21 07:47:10;;;;;;;2.50;0.90;;;;;;;20.12;50.51;100104.94;109163;1267;21954;-77
2022/05/21 07:49:44;;;;;;;3.10;0.80;;;;;;;20.16;48.99;100110.50;108950;1267;21964;-77
2022/05/21 07:52:29;;;;;;;1.80;1.00;;;;;;;19.97;48.44;100111.69;109020;1267;21979;-78
2022/05/21 07:55:47;;;;;;;;;;;;;;;;;;;;;
2022/05/21 07:58:49;;;;;;;5.00;0.90;;;;;;;19.73;51.25;100120.42;108396;1276;22087;-77
2022/05/21 08:01:20;;;;;;;2.40;1.00;;;;;;;20.09;51.58;100121.61;108359;1276;22873;-78
2022/05/21 08:03:50;;;;;;;3.10;1.00;;;;;;;20.39;49.70;100121.85;108496;1276;22445;-77
2022/05/21 08:06:19;;;;;;;2.90;1.10;;;;;;;20.52;48.49;100116.81;108442;1276;22987;-77
2022/05/21 08:08:52;;;;;;;2.20;0.90;;;;;;;20.52;47.68;100114.35;108335;1276;22008;-77
2022/05/21 08:11:21;;;;;;;3.30;0.90;;;;;;;20.37;47.05;100115.38;108435;1276;23673;-77
2022/05/21 08:13:52;;;;;;;2.00;0.90;;;;;;;20.39;48.01;100120.73;108059;1279;23850;-77
2022/05/21 08:16:23;;;;;;;2.80;0.90;;;;;;;20.41;47.25;100121.89;108146;1279;22057;-78
2022/05/21 08:18:53;;;;;;;5.20;2.60;;;;;;;20.20;46.32;100129.41;108351;1279;22002;-78
2022/05/21 08:21:24;;;;;;;4.00;0.90;;;;;;;19.90;46.25;100123.34;108195;1280;23098;-77
2022/05/21 08:26:56;;;;;;;6.10;2.40;;;;;;;19.61;47.62;100137.89;108321;1279;23080;-77
2022/05/21 08:29:37;;;;;;;6.30;3.20;;;;;;;19.67;47.47;100136.33;108264;1276;23651;-78
2022/05/21 08:32:13;;;;;;;5.80;4.20;;;;;;;19.84;48.13;100138.00;108437;1273;22009;-77
2022/05/21 08:34:50;;;;;;;3.60;1.40;;;;;;;20.29;48.29;100131.88;108781;1265;22015;-78
2022/05/21 08:37:24;;;;;;;7.30;2.20;;;;;;;20.78;46.91;100134.55;109351;1263;23603;-77
2022/05/21 08:40:01;;;;;;;6.20;1.60;;;;;;;20.93;44.95;100134.77;109237;1264;22028;-78
2022/05/21 08:42:51;;;;;;;7.90;2.40;;;;;;;20.77;44.20;100139.90;109289;1263;23778;-77
2022/05/21 08:45:32;;;;;;;3.80;2.50;;;;;;;20.71;44.94;100144.25;109087;1267;21990;-77
2022/05/21 08:48:12;;;;;;;7.30;3.10;;;;;;;20.70;44.33;100149.11;109189;1264;23135;-78
2022/05/21 08:50:53;;;;;;;6.60;3.80;;;;;;;20.55;44.07;100153.53;109042;1268;23060;-77
2022/05/21 08:53:27;;;;;;;4.70;3.10;;;;;;;20.44;44.14;100157.63;108838;1268;21976;-77
2022/05/21 08:56:02;;;;;;;6.90;2.80;;;;;;;20.24;43.66;100153.63;108920;1270;22090;-77
2022/05/21 08:59:00;;;;;;;5.30;1.50;;;;;;;20.10;44.11;100150.64;108907;1270;22677;-78
2022/05/21 09:01:47;;;;;;;11.50;1.40;;;;;;;20.07;44.53;100151.83;108776;1270;23654;-78
2022/05/21 09:04:23;;;;;;;4.80;3.10;;;;;;;20.09;44.70;100158.01;108779;1270;23623;-77
2022/05/21 09:07:03;;;;;;;5.40;2.60;;;;;;;20.29;44.95;100169.77;108756;1270;21950;-77
2022/05/21 09:10:01;;;;;;;6.30;3.70;;;;;;;20.64;44.83;100166.11;108852;1266;24682;-77
2022/05/21 09:13:22;;;;;;;3.40;1.30;;;;;;;21.10;43.38;100172.39;109126;1264;21984;-77
2022/05/21 09:19:21;;;;;;;16.70;1.70;;;;;;;21.62;41.38;100190.50;108622;1273;22003;-77
2022/05/21 09:22:13;;;;;;;6.20;3.50;;;;;;;21.63;39.98;100184.55;108445;1276;23738;-76
2022/05/21 09:25:27;;;;;;;3.40;1.50;;;;;;;21.65;39.21;100189.48;108686;1276;22026;-77
2022/05/21 09:28:11;;;;;;;3.30;1.20;;;;;;;21.55;38.99;100189.48;108575;1276;21999;-77
2022/05/21 09:30:56;;;;;;;3.70;1.10;;;;;;;21.47;39.20;100198.47;108437;1276;22053;-76
2022/05/21 09:33:45;;;;;;;6.70;4.60;;;;;;;21.42;40.16;100193.17;108444;1275;21993;-76
2022/05/21 09:36:31;;;;;;;7.20;2.20;;;;;;;21.68;40.06;100190.69;108194;1279;22188;-76
2022/05/21 09:39:02;;;;;;;3.90;0.90;;;;;;;21.93;39.88;100198.17;108528;1273;24289;-77
2022/05/21 09:41:32;;;;;;;6.50;2.40;;;;;;;22.07;38.63;100202.48;108462;1273;23023;-77
2022/05/21 09:47:21;;;;;;;6.70;2.50;;;;;;;21.80;37.67;100221.05;108099;1279;23813;-76
2022/05/21 09:50:11;;;;;;;6.90;5.30;;;;;;;21.56;37.78;100222.65;108260;1279;23792;-78
2022/05/21 09:52:45;;;;;;;8.30;4.30;;;;;;;21.28;38.00;100233.94;108285;1279;21992;-77
2022/05/21 09:55:37;;;;;;;6.90;1.40;;;;;;;21.05;38.46;100242.94;108387;1276;22044;-77
2022/05/21 09:58:14;;;;;;;8.60;3.00;;;;;;;21.07;38.57;100246.14;108169;1282;22058;-78
2022/05/21 10:00:53;;;;;;;11.80;6.40;;;;;;;21.17;38.61;100255.13;108076;1282;22001;-78
2022/05/21 10:03:47;;;;;;;7.50;4.60;;;;;;;21.25;37.77;100258.20;107937;1282;22008;-78
2022/05/21 10:06:40;;;;;;;11.30;4.70;;;;;;;21.03;37.20;100254.01;108243;1279;24638;-77
2022/05/21 10:12:10;;;;;;;4.30;1.20;;;;;;;20.36;37.65;100272.93;108408;1279;21999;-78
2022/05/21 10:15:15;;;;;;;6.00;2.00;;;;;;;20.00;37.89;100277.63;108349;1279;21991;-77
2022/05/21 10:18:07;;;;;;;7.00;3.00;;;;;;;19.64;38.68;100284.61;108405;1276;22896;-77
2022/05/21 10:20:44;;;;;;;;;;;;;;;19.39;39.39;100287.14;108285;1273;21977;-77
2022/05/21 10:23:57;;;;;;;5.20;2.90;;;;;;;19.25;40.23;100287.86;108775;1270;23618;-77
2022/05/21 10:26:50;;;;;;;6.70;3.20;;;;;;;19.17;40.01;100299.88;108428;1276;22395;-78
2022/05/21 10:30:19;;;;;;;6.70;2.70;;;;;;;19.05;40.18;100308.45;108464;1276;21987;-77
2022/05/21 10:33:06;;;;;;;5.90;2.00;;;;;;;18.96;40.10;100307.59;107909;1285;22086;-78
2022/05/21 10:36:14;;;;;;;3.40;1.50;;;;;;;18.88;40.50;100310.80;107905;1282;23632;-77
2022/05/21 10:39:17;;;;;;;3.80;1.90;;;;;;;18.86;40.79;100301.84;108169;1279;23613;-76
2022/05/21 10:41:51;;;;;;;10.40;3.30;;;;;;;18.92;41.28;100307.47;108075;1282;22031;-77
2022/05/21 10:44:41;;;;;;;7.50;4.80;;;;;;;19.15;41.98;100315.58;108050;1280;22017;-78
2022/05/21 10:47:57;;;;;;;5.70;1.70;;;;;;;19.28;40.62;100317.02;108043;1282;22378;-77
2022/05/21 10:51:08;;;;;;;4.40;1.80;;;;;;;19.11;40.10;100312.09;108104;1279;22018;-78
2022/05/21 10:54:40;;;;;;;4.60;2.20;;;;;;;18.99;40.69;100315.23;108084;1283;22185;-76
2022/05/21 10:58:07;;;;;;;4.30;1.70;;;;;;;19.00;40.67;100313.54;107724;1283;21999;-76
2022/05/21 11:00:46;;;;;;;3.60;1.70;;;;;;;19.00;40.80;100317.62;108006;1279;22181;-77
2022/05/21 11:03:42;;;;;;;6.60;1.20;;;;;;;19.03;40.61;100322.19;108386;1279;21988;-78
2022/05/21 11:06:34;;;;;;;3.40;1.30;;;;;;;19.00;40.38;100315.90;108326;1279;21998;-78
2022/05/21 11:09:34;;;;;;;3.80;1.00;;;;;;;18.90;40.20;100316.96;108320;1279;21999;-78
2022/05/21 11:12:18;;;;;;;3.40;1.80;;;;;;;18.82;40.64;100320.30;108383;1279;22313;-77
2022/05/21 11:15:09;;;;;;;5.60;1.20;;;;;;;18.79;40.58;100314.06;108050;1282;23091;-77
2022/05/21 11:17:40;;;;;;;8.00;3.10;;;;;;;18.83;40.99;100319.41;108058;1282;24335;-77
2022/05/21 11:20:18;;;;;;;;;;;;;;;18.91;40.78;100316.56;108070;1281;23147;-77
2022/05/21 11:23:17;;;;;;;2.90;0.70;;;;;;;18.91;40.78;100314.56;108086;1283;22028;-77
2022/05/21 11:26:02;;;;;;;3.60;2.40;;;;;;;18.93;40.48;100314.91;107994;1282;22018;-77
2022/05/21 11:28:48;;;;;;;5.00;1.30;;;;;;;18.97;40.35;100315.43;108205;1276;22092;-77
2022/05/21 11:37:29;;;;;;;1.50;0.90;;;;;;;19.01;40.77;100311.98;109436;1264;22089;-78
2022/05/21 11:40:28;;;;;;;4.10;2.60;;;;;;;19.05;40.48;100312.58;109271;1264;21970;-78
2022/05/21 11:43:01;;;;;;;4.60;1.10;;;;;;;19.08;40.74;100311.43;109190;1264;21990;-79
2022/05/21 11:45:31;;;;;;;21.40;4.20;;;;;;;19.11;41.06;100316.75;109237;1264;22046;-76
2022/05/21 11:48:22;;;;;;;4.00;0.90;;;;;;;19.25;41.44;100319.92;109098;1267;21974;-76
2022/05/21 11:51:22;;;;;;;4.90;1.80;;;;;;;19.37;41.20;100310.02;109272;1263;21976;-77
2022/05/21 11:53:53;;;;;;;3.90;1.10;;;;;;;19.48;41.36;100310.01;109228;1264;22452;-77
2022/05/21 11:56:24;;;;;;;6.50;1.20;;;;;;;19.64;41.33;100308.98;109241;1263;23613;-77
2022/05/21 11:58:59;;;;;;;1.90;1.00;;;;;;;19.79;41.06;100310.30;109223;1264;23001;-78
2022/05/21 12:01:40;;;;;;;5.00;1.20;;;;;;;19.86;40.37;100309.70;109292;1263;22029;-79
2022/05/21 12:04:40;;;;;;;4.10;0.80;;;;;;;19.78;40.37;100311.92;109301;1265;23719;-77
2022/05/21 12:07:46;;;;;;;4.60;1.40;;;;;;;19.73;40.44;100312.90;109184;1264;21963;-78
2022/05/21 12:10:26;;;;;;;8.40;2.30;;;;;;;19.68;40.82;100314.63;108805;1270;24395;-78
2022/05/21 12:13:16;;;;;;;3.50;1.10;;;;;;;19.72;40.64;100315.77;108793;1272;23712;-78
2022/05/21 12:15:53;;;;;;;9.20;1.70;;;;;;;19.77;40.31;100316.35;108862;1270;23597;-78
2022/05/21 12:18:25;;;;;;;7.30;1.50;;;;;;;19.75;39.77;100315.56;108575;1273;23076;-78
2022/05/21 12:20:56;;;;;;;8.10;1.20;;;;;;;19.69;39.80;100316.91;108905;1270;22008;-78
2022/05/21 12:23:29;;;;;;;8.90;1.20;;;;;;;19.64;39.73;100314.46;108778;1270;22058;-78
2022/05/21 12:26:17;;;;;;;6.80;1.80;;;;;;;19.64;40.00;100313.39;108854;1270;21997;-77
2022/05/21 12:29:15;;;;;;;3.80;1.40;;;;;;;19.61;39.92;100320.96;108813;1270;21991;-79
2022/05/21 12:31:56;;;;;;;3.40;1.10;;;;;;;19.54;40.20;100318.13;108547;1273;23057;-77
2022/05/21 12:34:36;;;;;;;4.70;1.60;;;;;;;19.55;40.80;100315.90;108858;1264;22023;-77
2022/05/21 12:37:31;;;;;;;5.80;1.60;;;;;;;19.60;40.86;100317.73;109389;1264;22435;-77
2022/05/21 12:40:34;;;;;;;4.60;1.20;;;;;;;19.65;40.85;100317.23;108761;1270;22123;-78
2022/05/21 12:43:14;;;;;;;4.30;2.10;;;;;;;19.66;40.47;100320.09;108411;1276;22000;-77
2022/05/21 12:45:52;;;;;;;4.60;1.40;;;;;;;19.64;40.30;100321.33;108355;1276;22000;-77
2022/05/21 12:48:32;;;;;;;5.30;1.30;;;;;;;19.60;40.50;100320.27;108464;1276;22110;-78
2022/05/21 12:51:25;;;;;;;3.60;1.30;;;;;;;19.57;40.57;100320.36;108458;1276;22076;-79
2022/05/21 12:54:28;;;;;;;7.70;1.90;;;;;;;19.46;40.62;100320.87;108586;1275;23629;-77
2022/05/21 12:57:13;;;;;;;3.40;1.30;;;;;;;19.39;40.66;100321.80;108594;1274;22441;-78